sensor_id;sensor_type;location;lat;lon;timestamp;pressure;altitude;pressure_sealevel;temperature;humidity
54910;BME280;63189;51.240;9.964;2023-04-15T00:00:07;97017.63;;;5.51;93.37
54910;BME280;63189;51.240;9.964;2023-04-15T00:02:32;97019.41;;;5.49;93.55
54910;BME280;63189;51.240;9.964;2023-04-15T00:04:58;97015.22;;;5.45;93.33
54910;BME280;63189;51.240;9.964;2023-04-15T00:07:23;97012.72;;;5.41;94.16
54910;BME280;63189;51.240;9.964;2023-04-15T00:09:48;97013.56;;;5.43;94.27
54910;BME280;63189;51.240;9.964;2023-04-15T00:12:13;97019.72;;;5.37;94.04
54910;BME280;63189;51.240;9.964;2023-04-15T00:14:40;97010.41;;;5.30;95.06
54910;BME280;63189;51.240;9.964;2023-04-15T00:17:05;97015.56;;;5.32;94.99
54910;BME280;63189;51.240;9.964;2023-04-15T00:19:32;97008.75;;;5.28;96.04
54910;BME280;63189;51.240;9.964;2023-04-15T00:21:58;97006.09;;;5.32;96.37
54910;BME280;63189;51.240;9.964;2023-04-15T00:24:25;97006.88;;;5.34;98.73
54910;BME280;63189;51.240;9.964;2023-04-15T00:26:56;97005.91;;;5.38;99.22
54910;BME280;63189;51.240;9.964;2023-04-15T00:29:22;97004.06;;;5.43;98.90
54910;BME280;63189;51.240;9.964;2023-04-15T00:31:47;96996.22;;;5.46;99.82
54910;BME280;63189;51.240;9.964;2023-04-15T00:34:12;96992.66;;;5.50;100.00
54910;BME280;63189;51.240;9.964;2023-04-15T00:36:39;96990.91;;;5.53;100.00
54910;BME280;63189;51.240;9.964;2023-04-15T00:39:05;96985.66;;;5.56;100.00
54910;BME280;63189;51.240;9.964;2023-04-15T00:41:30;96989.94;;;5.57;100.00
54910;BME280;63189;51.240;9.964;2023-04-15T00:43:58;96992.47;;;5.58;100.00
54910;BME280;63189;51.240;9.964;2023-04-15T00:46:28;96991.53;;;5.61;100.00
54910;BME280;63189;51.240;9.964;2023-04-15T00:48:56;96987.25;;;5.60;100.00
54910;BME280;63189;51.240;9.964;2023-04-15T00:51:22;96991.53;;;5.61;100.00
54910;BME280;63189;51.240;9.964;2023-04-15T00:53:48;96988.94;;;5.61;100.00
54910;BME280;63189;51.240;9.964;2023-04-15T00:56:14;96986.31;;;5.62;100.00
54910;BME280;63189;51.240;9.964;2023-04-15T00:58:39;96986.38;;;5.61;100.00
54910;BME280;63189;51.240;9.964;2023-04-15T01:01:05;96984.63;;;5.63;100.00
54910;BME280;63189;51.240;9.964;2023-04-15T01:03:30;96990.66;;;5.62;100.00
54910;BME280;63189;51.240;9.964;2023-04-15T01:05:56;96982.03;;;5.61;100.00
54910;BME280;63189;51.240;9.964;2023-04-15T01:08:29;96983.72;;;5.64;100.00
54910;BME280;63189;51.240;9.964;2023-04-15T01:11:00;96979.50;;;5.60;100.00
54910;BME280;63189;51.240;9.964;2023-04-15T01:13:29;96987.16;;;5.64;100.00
54910;BME280;63189;51.240;9.964;2023-04-15T01:15:55;96984.63;;;5.63;100.00
54910;BME280;63189;51.240;9.964;2023-04-15T01:18:22;96990.53;;;5.66;100.00
54910;BME280;63189;51.240;9.964;2023-04-15T01:20:48;96988.75;;;5.68;100.00
54910;BME280;63189;51.240;9.964;2023-04-15T01:23:16;96986.19;;;5.68;100.00
54910;BME280;63189;51.240;9.964;2023-04-15T01:25:44;96984.44;;;5.69;100.00
54910;BME280;63189;51.240;9.964;2023-04-15T01:28:09;96986.13;;;5.70;100.00
54910;BME280;63189;51.240;9.964;2023-04-15T01:30:35;96980.13;;;5.69;100.00
54910;BME280;63189;51.240;9.964;2023-04-15T01:33:00;96975.78;;;5.70;100.00
54910;BME280;63189;51.240;9.964;2023-04-15T01:35:26;96970.72;;;5.67;100.00
54910;BME280;63189;51.240;9.964;2023-04-15T01:37:54;96969.00;;;5.66;100.00
54910;BME280;63189;51.240;9.964;2023-04-15T01:40:27;96969.75;;;5.69;100.00
54910;BME280;63189;51.240;9.964;2023-04-15T01:42:53;96964.50;;;5.72;100.00
54910;BME280;63189;51.240;9.964;2023-04-15T01:45:18;96962.91;;;5.68;100.00
54910;BME280;63189;51.240;9.964;2023-04-15T01:47:44;96977.41;;;5.74;100.00
54910;BME280;63189;51.240;9.964;2023-04-15T01:50:10;96962.75;;;5.74;100.00
54910;BME280;63189;51.240;9.964;2023-04-15T01:52:35;96962.66;;;5.77;100.00
54910;BME280;63189;51.240;9.964;2023-04-15T01:55:01;96958.41;;;5.75;100.00
54910;BME280;63189;51.240;9.964;2023-04-15T01:57:26;96953.22;;;5.76;100.00
54910;BME280;63189;51.240;9.964;2023-04-15T01:59:52;96959.19;;;5.78;100.00
54910;BME280;63189;51.240;9.964;2023-04-15T02:02:17;96958.25;;;5.81;100.00
54910;BME280;63189;51.240;9.964;2023-04-15T02:04:42;96959.09;;;5.82;100.00
54910;BME280;63189;51.240;9.964;2023-04-15T02:07:08;96956.63;;;5.77;100.00
54910;BME280;63189;51.240;9.964;2023-04-15T02:09:34;96958.25;;;5.81;100.00
54910;BME280;63189;51.240;9.964;2023-04-15T02:11:59;96959.13;;;5.80;100.00
54910;BME280;63189;51.240;9.964;2023-04-15T02:14:24;96955.75;;;5.78;100.00
54910;BME280;63189;51.240;9.964;2023-04-15T02:16:52;96956.59;;;5.78;100.00
54910;BME280;63189;51.240;9.964;2023-04-15T02:19:17;96951.47;;;5.77;100.00
54910;BME280;63189;51.240;9.964;2023-04-15T02:21:43;96949.88;;;5.71;100.00
54910;BME280;63189;51.240;9.964;2023-04-15T02:24:08;96961.00;;;5.75;100.00
54910;BME280;63189;51.240;9.964;2023-04-15T02:26:33;96955.00;;;5.73;100.00
54910;BME280;63189;51.240;9.964;2023-04-15T02:28:59;96962.75;;;5.74;100.00
54910;BME280;63189;51.240;9.964;2023-04-15T02:31:25;96949.06;;;5.69;100.00
54910;BME280;63189;51.240;9.964;2023-04-15T02:33:50;96958.63;;;5.67;100.00
54910;BME280;63189;51.240;9.964;2023-04-15T02:36:16;96960.31;;;5.68;100.00
54910;BME280;63189;51.240;9.964;2023-04-15T02:38:41;96961.13;;;5.70;100.00
54910;BME280;63189;51.240;9.964;2023-04-15T02:41:10;96967.28;;;5.66;100.00
54910;BME280;63189;51.240;9.964;2023-04-15T02:43:35;96969.81;;;5.68;100.00
54910;BME280;63189;51.240;9.964;2023-04-15T02:46:01;96961.34;;;5.63;100.00
54910;BME280;63189;51.240;9.964;2023-04-15T02:48:26;96976.81;;;5.64;100.00
54910;BME280;63189;51.240;9.964;2023-04-15T02:50:51;96968.31;;;5.59;100.00
54910;BME280;63189;51.240;9.964;2023-04-15T02:53:17;96970.91;;;5.59;100.00
54910;BME280;63189;51.240;9.964;2023-04-15T02:55:44;96971.03;;;5.55;100.00
54910;BME280;63189;51.240;9.964;2023-04-15T02:58:10;96979.59;;;5.57;100.00
54910;BME280;63189;51.240;9.964;2023-04-15T03:00:35;96978.75;;;5.56;100.00
54910;BME280;63189;51.240;9.964;2023-04-15T03:03:03;96980.44;;;5.57;100.00
54910;BME280;63189;51.240;9.964;2023-04-15T03:05:28;96974.41;;;5.57;100.00
54910;BME280;63189;51.240;9.964;2023-04-15T03:07:54;96979.59;;;5.57;100.00
54910;BME280;63189;51.240;9.964;2023-04-15T03:10:20;96949.66;;;5.48;100.00
54910;BME280;63189;51.240;9.964;2023-04-15T03:12:46;96968.44;;;5.55;100.00
54910;BME280;63189;51.240;9.964;2023-04-15T03:15:11;96974.41;;;5.57;100.00
54910;BME280;63189;51.240;9.964;2023-04-15T03:17:37;96970.94;;;5.58;100.00
54910;BME280;63189;51.240;9.964;2023-04-15T03:20:03;96962.38;;;5.56;100.00
54910;BME280;63189;51.240;9.964;2023-04-15T03:22:30;96964.03;;;5.58;100.00
54910;BME280;63189;51.240;9.964;2023-04-15T03:24:55;96956.31;;;5.57;100.00
54910;BME280;63189;51.240;9.964;2023-04-15T03:27:21;96952.03;;;5.56;100.00
54910;BME280;63189;51.240;9.964;2023-04-15T03:29:46;96959.84;;;5.54;100.00
54910;BME280;63189;51.240;9.964;2023-04-15T03:32:11;96957.22;;;5.56;100.00
54910;BME280;63189;51.240;9.964;2023-04-15T03:34:39;96958.91;;;5.57;100.00
54910;BME280;63189;51.240;9.964;2023-04-15T03:37:04;96966.66;;;5.57;100.00
54910;BME280;63189;51.240;9.964;2023-04-15T03:39:30;96960.69;;;5.55;100.00
54910;BME280;63189;51.240;9.964;2023-04-15T03:41:55;96968.34;;;5.58;100.00
54910;BME280;63189;51.240;9.964;2023-04-15T03:44:22;96964.00;;;5.60;100.00
54910;BME280;63189;51.240;9.964;2023-04-15T03:46:47;96961.34;;;5.61;100.00
54910;BME280;63189;51.240;9.964;2023-04-15T03:49:14;96961.44;;;5.58;100.00
54910;BME280;63189;51.240;9.964;2023-04-15T03:51:39;96960.50;;;5.61;100.00
54910;BME280;63189;51.240;9.964;2023-04-15T03:54:04;96958.81;;;5.60;100.00
54910;BME280;63189;51.240;9.964;2023-04-15T03:56:30;96964.78;;;5.62;100.00
54910;BME280;63189;51.240;9.964;2023-04-15T03:58:55;96952.91;;;5.56;100.00
54910;BME280;63189;51.240;9.964;2023-04-15T04:01:21;96961.41;;;5.60;100.00
54910;BME280;63189;51.240;9.964;2023-04-15T04:03:46;96955.44;;;5.58;100.00
54910;BME280;63189;51.240;9.964;2023-04-15T04:06:12;96954.59;;;5.57;100.00
54910;BME280;63189;51.240;9.964;2023-04-15T04:08:37;96953.84;;;5.54;100.00
54910;BME280;63189;51.240;9.964;2023-04-15T04:11:03;96959.84;;;5.54;100.00
54910;BME280;63189;51.240;9.964;2023-04-15T04:13:28;96955.47;;;5.56;100.00
54910;BME280;63189;51.240;9.964;2023-04-15T04:15:54;96951.25;;;5.54;100.00
54910;BME280;63189;51.240;9.964;2023-04-15T04:18:19;96958.16;;;5.53;100.00
54910;BME280;63189;51.240;9.964;2023-04-15T04:20:45;96958.16;;;5.51;100.00
54910;BME280;63189;51.240;9.964;2023-04-15T04:23:10;96954.78;;;5.49;100.00
54910;BME280;63189;51.240;9.964;2023-04-15T04:25:35;96967.66;;;5.51;100.00
54910;BME280;63189;51.240;9.964;2023-04-15T04:28:01;96965.13;;;5.49;100.00
54910;BME280;63189;51.240;9.964;2023-04-15T04:30:29;96966.84;;;5.49;100.00
54910;BME280;63189;51.240;9.964;2023-04-15T04:32:54;96971.09;;;5.51;100.00
54910;BME280;63189;51.240;9.964;2023-04-15T04:35:19;96966.84;;;5.49;100.00
54910;BME280;63189;51.240;9.964;2023-04-15T04:37:46;96954.91;;;5.45;100.00
54910;BME280;63189;51.240;9.964;2023-04-15T04:40:11;96964.31;;;5.47;100.00
54910;BME280;63189;51.240;9.964;2023-04-15T04:42:37;96966.00;;;5.48;100.00
54910;BME280;63189;51.240;9.964;2023-04-15T04:45:02;96956.66;;;5.44;100.00
54910;BME280;63189;51.240;9.964;2023-04-15T04:47:29;96962.53;;;5.49;100.00
54910;BME280;63189;51.240;9.964;2023-04-15T04:49:54;96960.88;;;5.47;100.00
54910;BME280;63189;51.240;9.964;2023-04-15T04:52:22;96972.16;;;5.44;100.00
54910;BME280;63189;51.240;9.964;2023-04-15T04:54:47;96966.09;;;5.45;100.00
54910;BME280;63189;51.240;9.964;2023-04-15T04:57:12;96963.59;;;5.42;100.00
54910;BME280;63189;51.240;9.964;2023-04-15T04:59:38;96961.06;;;5.39;100.00
54910;BME280;63189;51.240;9.964;2023-04-15T05:02:04;96965.41;;;5.39;100.00
54910;BME280;63189;51.240;9.964;2023-04-15T05:04:29;96965.44;;;5.37;100.00
54910;BME280;63189;51.240;9.964;2023-04-15T05:06:57;96969.81;;;5.35;100.00
54910;BME280;63189;51.240;9.964;2023-04-15T05:09:23;96969.91;;;5.32;100.00
54910;BME280;63189;51.240;9.964;2023-04-15T05:11:48;96962.09;;;5.34;100.00
54910;BME280;63189;51.240;9.964;2023-04-15T05:14:14;96963.00;;;5.33;100.00
54910;BME280;63189;51.240;9.964;2023-04-15T05:16:39;96971.59;;;5.33;100.00
54910;BME280;63189;51.240;9.964;2023-04-15T05:19:06;96975.06;;;5.32;100.00
54910;BME280;63189;51.240;9.964;2023-04-15T05:21:32;96969.00;;;5.33;100.00
54910;BME280;63189;51.240;9.964;2023-04-15T05:23:57;96975.09;;;5.31;100.00
54910;BME280;63189;51.240;9.964;2023-04-15T05:26:22;96978.59;;;5.28;100.00
54910;BME280;63189;51.240;9.964;2023-04-15T05:28:48;96974.38;;;5.26;100.00
54910;BME280;63189;51.240;9.964;2023-04-15T05:31:14;96973.44;;;5.28;100.00
54910;BME280;63189;51.240;9.964;2023-04-15T05:33:40;96970.88;;;5.27;100.00
54910;BME280;63189;51.240;9.964;2023-04-15T05:36:05;96964.88;;;5.26;100.00
54910;BME280;63189;51.240;9.964;2023-04-15T05:38:31;96963.13;;;5.27;100.00
54910;BME280;63189;51.240;9.964;2023-04-15T05:40:56;96969.94;;;5.29;100.00
54910;BME280;63189;51.240;9.964;2023-04-15T05:43:21;96967.47;;;5.26;100.00
54910;BME280;63189;51.240;9.964;2023-04-15T05:45:51;96973.44;;;5.28;100.00
54910;BME280;63189;51.240;9.964;2023-04-15T05:48:16;96973.38;;;5.30;100.00
54910;BME280;63189;51.240;9.964;2023-04-15T05:50:43;96979.41;;;5.30;100.00
54910;BME280;63189;51.240;9.964;2023-04-15T05:53:08;96980.28;;;5.29;100.00
54910;BME280;63189;51.240;9.964;2023-04-15T05:55:33;96980.28;;;5.29;100.00
54910;BME280;63189;51.240;9.964;2023-04-15T05:57:59;96984.56;;;5.32;100.00
54910;BME280;63189;51.240;9.964;2023-04-15T06:00:24;96975.22;;;5.26;100.00
54910;BME280;63189;51.240;9.964;2023-04-15T06:02:50;96970.03;;;5.26;100.00
54910;BME280;63189;51.240;9.964;2023-04-15T06:05:15;96970.13;;;5.23;100.00
54910;BME280;63189;51.240;9.964;2023-04-15T06:07:41;96956.59;;;5.13;100.00
54910;BME280;63189;51.240;9.964;2023-04-15T06:10:08;96959.03;;;5.18;100.00
54910;BME280;63189;51.240;9.964;2023-04-15T06:12:34;96959.16;;;5.13;100.00
54910;BME280;63189;51.240;9.964;2023-04-15T06:14:59;96982.16;;;5.24;100.00
54910;BME280;63189;51.240;9.964;2023-04-15T06:17:25;96977.94;;;5.20;100.00
54910;BME280;63189;51.240;9.964;2023-04-15T06:19:50;96972.03;;;5.15;100.00
54910;BME280;63189;51.240;9.964;2023-04-15T06:22:20;96966.03;;;5.14;100.00
54910;BME280;63189;51.240;9.964;2023-04-15T06:24:46;96972.75;;;5.21;100.00
54910;BME280;63189;51.240;9.964;2023-04-15T06:27:12;96973.59;;;5.22;100.00
54910;BME280;63189;51.240;9.964;2023-04-15T06:29:37;96978.59;;;5.28;100.00
54910;BME280;63189;51.240;9.964;2023-04-15T06:32:02;96978.63;;;5.27;100.00
54910;BME280;63189;51.240;9.964;2023-04-15T06:34:27;96968.34;;;5.25;100.00
54910;BME280;63189;51.240;9.964;2023-04-15T06:36:53;96982.03;;;5.29;100.00
54910;BME280;63189;51.240;9.964;2023-04-15T06:39:19;96975.13;;;5.29;100.00
54910;BME280;63189;51.240;9.964;2023-04-15T06:41:45;96972.47;;;5.32;100.00
54910;BME280;63189;51.240;9.964;2023-04-15T06:44:10;96959.69;;;5.26;100.00
54910;BME280;63189;51.240;9.964;2023-04-15T06:46:36;96968.97;;;5.35;100.00
54910;BME280;63189;51.240;9.964;2023-04-15T06:49:01;96970.69;;;5.34;100.00
54910;BME280;63189;51.240;9.964;2023-04-15T06:51:27;96977.59;;;5.34;100.00
54910;BME280;63189;51.240;9.964;2023-04-15T06:53:53;96979.34;;;5.33;100.00
54910;BME280;63189;51.240;9.964;2023-04-15T06:56:18;96973.34;;;5.31;100.00
54910;BME280;63189;51.240;9.964;2023-04-15T06:58:43;96977.66;;;5.31;100.00
54910;BME280;63189;51.240;9.964;2023-04-15T07:01:09;96986.25;;;5.33;100.00
54910;BME280;63189;51.240;9.964;2023-04-15T07:03:34;96978.47;;;5.34;100.00
54910;BME280;63189;51.240;9.964;2023-04-15T07:06:00;96980.09;;;5.37;100.00
54910;BME280;63189;51.240;9.964;2023-04-15T07:08:26;96973.19;;;5.37;100.00
54910;BME280;63189;51.240;9.964;2023-04-15T07:10:51;96974.03;;;5.38;100.00
54910;BME280;63189;51.240;9.964;2023-04-15T07:13:16;96991.19;;;5.42;100.00
54910;BME280;63189;51.240;9.964;2023-04-15T07:15:41;96989.41;;;5.44;100.00
54910;BME280;63189;51.240;9.964;2023-04-15T07:18:07;96968.72;;;5.44;100.00
54910;BME280;63189;51.240;9.964;2023-04-15T07:20:33;96976.53;;;5.42;100.00
54910;BME280;63189;51.240;9.964;2023-04-15T07:22:59;96975.59;;;5.45;100.00
54910;BME280;63189;51.240;9.964;2023-04-15T07:25:24;96976.44;;;5.45;100.00
54910;BME280;63189;51.240;9.964;2023-04-15T07:27:49;96972.16;;;5.44;100.00
54910;BME280;63189;51.240;9.964;2023-04-15T07:30:15;96972.22;;;5.41;100.00
54910;BME280;63189;51.240;9.964;2023-04-15T07:32:41;96973.09;;;5.42;100.00
54910;BME280;63189;51.240;9.964;2023-04-15T07:35:07;96973.09;;;5.42;100.00
54910;BME280;63189;51.240;9.964;2023-04-15T07:37:34;96968.06;;;5.36;100.00
54910;BME280;63189;51.240;9.964;2023-04-15T07:39:59;96961.31;;;5.30;100.00
54910;BME280;63189;51.240;9.964;2023-04-15T07:42:24;96972.50;;;5.31;100.00
54910;BME280;63189;51.240;9.964;2023-04-15T07:44:50;96981.09;;;5.31;100.00
54910;BME280;63189;51.240;9.964;2023-04-15T07:47:16;96984.50;;;5.33;100.00
54910;BME280;63189;51.240;9.964;2023-04-15T07:49:41;96981.09;;;5.33;100.00
54910;BME280;63189;51.240;9.964;2023-04-15T07:52:07;96975.97;;;5.30;100.00
54910;BME280;63189;51.240;9.964;2023-04-15T07:54:32;96979.31;;;5.35;100.00
54910;BME280;63189;51.240;9.964;2023-04-15T07:56:58;96988.75;;;5.36;100.00
54910;BME280;63189;51.240;9.964;2023-04-15T07:59:23;96976.75;;;5.33;100.00
54910;BME280;63189;51.240;9.964;2023-04-15T08:01:48;96977.56;;;5.35;100.00
54910;BME280;63189;51.240;9.964;2023-04-15T08:04:14;96987.09;;;5.33;100.00
54910;BME280;63189;51.240;9.964;2023-04-15T08:06:40;96985.31;;;5.35;100.00
54910;BME280;63189;51.240;9.964;2023-04-15T08:09:05;96991.34;;;5.36;100.00
54910;BME280;63189;51.240;9.964;2023-04-15T08:11:31;96987.94;;;5.34;100.00
54910;BME280;63189;51.240;9.964;2023-04-15T08:13:56;96983.66;;;5.33;100.00
54910;BME280;63189;51.240;9.964;2023-04-15T08:16:23;96990.56;;;5.32;100.00
54910;BME280;63189;51.240;9.964;2023-04-15T08:18:50;96989.72;;;5.32;100.00
54910;BME280;63189;51.240;9.964;2023-04-15T08:21:17;96980.28;;;5.29;100.00
54910;BME280;63189;51.240;9.964;2023-04-15T08:23:44;96987.09;;;5.33;100.00
54910;BME280;63189;51.240;9.964;2023-04-15T08:26:10;96983.66;;;5.33;100.00
54910;BME280;63189;51.240;9.964;2023-04-15T08:28:38;96981.94;;;5.33;100.00
54910;BME280;63189;51.240;9.964;2023-04-15T08:31:04;96993.06;;;5.35;100.00
54910;BME280;63189;51.240;9.964;2023-04-15T08:33:30;96984.44;;;5.36;100.00
54910;BME280;63189;51.240;9.964;2023-04-15T08:35:55;96983.63;;;5.34;100.00
54910;BME280;63189;51.240;9.964;2023-04-15T08:38:22;96986.13;;;5.37;100.00
54910;BME280;63189;51.240;9.964;2023-04-15T08:40:48;96986.94;;;5.39;100.00
54910;BME280;63189;51.240;9.964;2023-04-15T08:43:26;96989.56;;;5.38;100.00
54910;BME280;63189;51.240;9.964;2023-04-15T08:45:53;96990.41;;;5.38;100.00
54910;BME280;63189;51.240;9.964;2023-04-15T08:48:19;96994.72;;;5.38;100.00
54910;BME280;63189;51.240;9.964;2023-04-15T08:50:46;96987.78;;;5.40;100.00
54910;BME280;63189;51.240;9.964;2023-04-15T08:53:14;96988.63;;;5.40;100.00
54910;BME280;63189;51.240;9.964;2023-04-15T08:55:44;96997.16;;;5.44;100.00
54910;BME280;63189;51.240;9.964;2023-04-15T08:58:11;96986.81;;;5.44;100.00
54910;BME280;63189;51.240;9.964;2023-04-15T09:00:36;96990.22;;;5.46;100.00
54910;BME280;63189;51.240;9.964;2023-04-15T09:03:05;96994.53;;;5.45;100.00
54910;BME280;63189;51.240;9.964;2023-04-15T09:05:32;96995.34;;;5.47;100.00
54910;BME280;63189;51.240;9.964;2023-04-15T09:07:59;96996.19;;;5.48;100.00
54910;BME280;63189;51.240;9.964;2023-04-15T09:10:24;96993.66;;;5.46;100.00
54910;BME280;63189;51.240;9.964;2023-04-15T09:12:49;96993.72;;;5.43;100.00
54910;BME280;63189;51.240;9.964;2023-04-15T09:15:16;96994.53;;;5.45;100.00
54910;BME280;63189;51.240;9.964;2023-04-15T09:17:45;96994.50;;;5.47;100.00
54910;BME280;63189;51.240;9.964;2023-04-15T09:20:15;97000.59;;;5.44;100.00
54910;BME280;63189;51.240;9.964;2023-04-15T09:22:44;96999.63;;;5.48;100.00
54910;BME280;63189;51.240;9.964;2023-04-15T09:27:59;97007.38;;;5.48;100.00
54910;BME280;63189;51.240;9.964;2023-04-15T09:30:27;97009.16;;;5.46;100.00
54910;BME280;63189;51.240;9.964;2023-04-15T09:32:54;97015.22;;;5.45;100.00
54910;BME280;63189;51.240;9.964;2023-04-15T09:35:25;97014.31;;;5.46;100.00
54910;BME280;63189;51.240;9.964;2023-04-15T09:37:51;97012.63;;;5.45;100.00
54910;BME280;63189;51.240;9.964;2023-04-15T09:40:33;97014.41;;;5.43;100.00
54910;BME280;63189;51.240;9.964;2023-04-15T09:43:00;97023.88;;;5.44;100.00
54910;BME280;63189;51.240;9.964;2023-04-15T09:45:29;97023.78;;;5.47;100.00
54910;BME280;63189;51.240;9.964;2023-04-15T09:47:57;97038.31;;;5.51;100.00
54910;BME280;63189;51.240;9.964;2023-04-15T09:50:26;97030.56;;;5.51;100.00
54910;BME280;63189;51.240;9.964;2023-04-15T09:52:52;97022.78;;;5.53;100.00
54910;BME280;63189;51.240;9.964;2023-04-15T09:55:17;97023.63;;;5.54;100.00
54910;BME280;63189;51.240;9.964;2023-04-15T09:57:44;97023.56;;;5.57;100.00
54910;BME280;63189;51.240;9.964;2023-04-15T10:00:11;97021.81;;;5.57;100.00
54910;BME280;63189;51.240;9.964;2023-04-15T10:02:39;97025.16;;;5.61;100.00
54910;BME280;63189;51.240;9.964;2023-04-15T10:05:09;97026.03;;;5.60;100.00
54910;BME280;63189;51.240;9.964;2023-04-15T10:07:38;97019.22;;;5.57;100.00
54910;BME280;63189;51.240;9.964;2023-04-15T10:10:05;97019.13;;;5.60;100.00
54910;BME280;63189;51.240;9.964;2023-04-15T10:12:31;97023.41;;;5.63;100.00
54910;BME280;63189;51.240;9.964;2023-04-15T10:15:00;97028.59;;;5.61;100.00
54910;BME280;63189;51.240;9.964;2023-04-15T10:17:27;97027.75;;;5.61;100.00
54910;BME280;63189;51.240;9.964;2023-04-15T10:20:00;97031.16;;;5.63;100.00
54910;BME280;63189;51.240;9.964;2023-04-15T10:22:41;97038.03;;;5.64;100.00
54910;BME280;63189;51.240;9.964;2023-04-15T10:25:09;97037.19;;;5.62;100.00
54910;BME280;63189;51.240;9.964;2023-04-15T10:27:35;97038.03;;;5.64;100.00
54910;BME280;63189;51.240;9.964;2023-04-15T10:30:12;97038.94;;;5.61;100.00
54910;BME280;63189;51.240;9.964;2023-04-15T10:32:40;97045.84;;;5.61;100.00
54910;BME280;63189;51.240;9.964;2023-04-15T10:35:07;97037.19;;;5.63;100.00
54910;BME280;63189;51.240;9.964;2023-04-15T10:37:37;97048.44;;;5.61;100.00
54910;BME280;63189;51.240;9.964;2023-04-15T10:40:31;97054.50;;;5.60;100.00
54910;BME280;63189;51.240;9.964;2023-04-15T10:43:00;97055.34;;;5.60;100.00
54910;BME280;63189;51.240;9.964;2023-04-15T10:45:46;97058.78;;;5.61;100.00
54910;BME280;63189;51.240;9.964;2023-04-15T10:48:15;97057.91;;;5.60;100.00
54910;BME280;63189;51.240;9.964;2023-04-15T10:50:55;97067.41;;;5.60;100.00
54910;BME280;63189;51.240;9.964;2023-04-15T10:53:28;97053.69;;;5.58;100.00
54910;BME280;63189;51.240;9.964;2023-04-15T10:55:54;97064.03;;;5.58;100.00
54910;BME280;63189;51.240;9.964;2023-04-15T10:58:22;97075.19;;;5.60;100.00
54910;BME280;63189;51.240;9.964;2023-04-15T11:00:53;97074.38;;;5.58;100.00
54910;BME280;63189;51.240;9.964;2023-04-15T11:06:43;97076.78;;;5.65;100.00
54910;BME280;63189;51.240;9.964;2023-04-15T11:09:30;97088.84;;;5.65;100.00
54910;BME280;63189;51.240;9.964;2023-04-15T11:12:07;97078.50;;;5.65;100.00
54910;BME280;63189;51.240;9.964;2023-04-15T11:14:39;97078.50;;;5.65;100.00
54910;BME280;63189;51.240;9.964;2023-04-15T11:17:05;97087.16;;;5.64;100.00
54910;BME280;63189;51.240;9.964;2023-04-15T11:19:37;97079.31;;;5.67;100.00
54910;BME280;63189;51.240;9.964;2023-04-15T11:22:07;97085.25;;;5.70;100.00
54910;BME280;63189;51.240;9.964;2023-04-15T11:24:32;97096.38;;;5.74;100.00
54910;BME280;63189;51.240;9.964;2023-04-15T11:26:58;97089.50;;;5.73;100.00
54910;BME280;63189;51.240;9.964;2023-04-15T11:29:28;97091.22;;;5.74;100.00
54910;BME280;63189;51.240;9.964;2023-04-15T11:32:07;97098.97;;;5.74;100.00
54910;BME280;63189;51.240;9.964;2023-04-15T11:34:32;97099.84;;;5.73;100.00
54910;BME280;63189;51.240;9.964;2023-04-15T11:36:59;97101.63;;;5.71;100.00
54910;BME280;63189;51.240;9.964;2023-04-15T11:39:28;97102.50;;;5.70;100.00
54910;BME280;63189;51.240;9.964;2023-04-15T11:41:53;97108.47;;;5.72;100.00
54910;BME280;63189;51.240;9.964;2023-04-15T11:44:20;97108.44;;;5.75;100.00
54910;BME280;63189;51.240;9.964;2023-04-15T11:46:45;97111.91;;;5.74;100.00
54910;BME280;63189;51.240;9.964;2023-04-15T11:49:10;97104.09;;;5.75;100.00
54910;BME280;63189;51.240;9.964;2023-04-15T11:51:36;97097.25;;;5.73;100.00
54910;BME280;63189;51.240;9.964;2023-04-15T11:54:01;97113.50;;;5.78;100.00
54910;BME280;63189;51.240;9.964;2023-04-15T11:56:27;97111.78;;;5.78;100.00
54910;BME280;63189;51.240;9.964;2023-04-15T11:58:57;97122.09;;;5.80;100.00
54910;BME280;63189;51.240;9.964;2023-04-15T12:01:34;97110.97;;;5.76;100.00
54910;BME280;63189;51.240;9.964;2023-04-15T12:04:00;97121.31;;;5.76;100.00
54910;BME280;63189;51.240;9.964;2023-04-15T12:06:33;97123.78;;;5.81;100.00
54910;BME280;63189;51.240;9.964;2023-04-15T12:16:35;97128.81;;;5.87;100.00
54910;BME280;63189;51.240;9.964;2023-04-15T12:19:05;97139.03;;;5.93;100.00
54910;BME280;63189;51.240;9.964;2023-04-15T12:21:36;97135.59;;;5.93;100.00
54910;BME280;63189;51.240;9.964;2023-04-15T12:24:05;97140.75;;;5.93;100.00
54910;BME280;63189;51.240;9.964;2023-04-15T12:26:34;97126.97;;;5.92;100.00
54910;BME280;63189;51.240;9.964;2023-04-15T12:29:01;97145.03;;;5.94;100.00
54910;BME280;63189;51.240;9.964;2023-04-15T12:31:26;97139.03;;;5.93;100.00
54910;BME280;63189;51.240;9.964;2023-04-15T12:33:54;97157.94;;;5.97;100.00
54910;BME280;63189;51.240;9.964;2023-04-15T12:36:20;97150.22;;;5.94;100.00
54910;BME280;63189;51.240;9.964;2023-04-15T12:38:45;97152.78;;;5.95;100.00
54910;BME280;63189;51.240;9.964;2023-04-15T12:41:10;97156.28;;;5.94;100.00
54910;BME280;63189;51.240;9.964;2023-04-15T12:43:36;97156.28;;;5.94;100.00
54910;BME280;63189;51.240;9.964;2023-04-15T12:46:01;97156.22;;;5.96;100.00
54910;BME280;63189;51.240;9.964;2023-04-15T12:48:27;97161.44;;;5.94;100.00
54910;BME280;63189;51.240;9.964;2023-04-15T12:50:52;97167.38;;;5.98;100.00
54910;BME280;63189;51.240;9.964;2023-04-15T12:53:17;97170.81;;;5.98;100.00
54910;BME280;63189;51.240;9.964;2023-04-15T12:55:43;97178.59;;;5.98;100.00
54910;BME280;63189;51.240;9.964;2023-04-15T12:58:08;97172.56;;;5.98;100.00
54910;BME280;63189;51.240;9.964;2023-04-15T13:00:35;97184.56;;;6.00;100.00
54910;BME280;63189;51.240;9.964;2023-04-15T13:03:01;97178.59;;;5.98;100.00
54910;BME280;63189;51.240;9.964;2023-04-15T13:05:27;97184.59;;;5.99;100.00
54910;BME280;63189;51.240;9.964;2023-04-15T13:07:54;97190.53;;;6.02;100.00
54910;BME280;63189;51.240;9.964;2023-04-15T13:10:19;97193.97;;;6.04;100.00